Terminal Aerodrome Forecast
Issued by NWS

Home | Current Version | Previous Version | Text Only | Print | Product List | Glossary On
Versions: 1 2 3 4 5 6 7 8 9 10 11 12 13
000
FTUS45 KABQ 290527
TAFGUP
TAF
KGUP 290527Z 2906/3006 22008KT P6SM BKN100
      TEMPO 2913/2917 5SM -RASN OVC025
     FM291800 25013KT P6SM VCSH OVC035
     FM292000 26015G25KT P6SM VCSH OVC050
     FM300200 29009KT P6SM OVC050=

USA.gov is the U.S. government's official web portal to all federal, state and local government web resources and services.